createdAt,value
2019-03-23T00:00:46.054Z,12.37
2019-03-23T00:03:13.728Z,15.50
2019-03-23T00:05:41.328Z,23.32
2019-03-23T00:08:08.857Z,26.07
2019-03-23T00:10:36.373Z,27.35
2019-03-23T00:13:03.934Z,30.50
2019-03-23T00:15:31.463Z,27.13
2019-03-23T00:17:59.061Z,26.77
2019-03-23T00:20:26.515Z,26.45
2019-03-23T00:22:54.076Z,26.33
2019-03-23T00:25:21.532Z,28.17
2019-03-23T00:27:49.258Z,23.30
2019-03-23T00:30:17.025Z,25.75
2019-03-23T00:32:45.771Z,25.35
2019-03-23T00:35:13.550Z,22.37
2019-03-23T00:37:41.090Z,21.95
2019-03-23T00:40:08.872Z,19.00
2019-03-23T00:42:36.408Z,16.57
2019-03-23T00:45:04.304Z,17.62
2019-03-23T00:47:31.930Z,17.02
2019-03-23T00:49:59.580Z,15.90
2019-03-23T00:52:27.149Z,15.55
2019-03-23T00:54:54.754Z,14.98
2019-03-23T00:57:22.280Z,12.60
2019-03-23T00:59:49.724Z,12.75
2019-03-23T01:02:17.260Z,11.10
2019-03-23T01:04:44.949Z,9.48
2019-03-23T01:07:12.539Z,10.60
2019-03-23T01:09:40.168Z,9.05
2019-03-23T01:12:07.752Z,8.15
2019-03-23T01:14:35.229Z,8.53
2019-03-23T01:17:02.794Z,7.55
2019-03-23T01:19:30.444Z,7.95
2019-03-23T01:21:57.914Z,7.92
2019-03-23T01:24:25.563Z,7.20
2019-03-23T01:26:53.193Z,6.53
2019-03-23T01:29:20.771Z,6.92
2019-03-23T01:31:48.361Z,6.85
2019-03-23T01:34:15.919Z,7.05
2019-03-23T01:36:43.505Z,6.58
2019-03-23T01:39:11.223Z,6.05
2019-03-23T01:41:38.700Z,6.50
2019-03-23T01:44:06.315Z,5.95
2019-03-23T01:46:34.024Z,6.42
2019-03-23T01:49:01.722Z,7.00
2019-03-23T01:51:29.295Z,6.03
2019-03-23T01:53:56.940Z,6.12
2019-03-23T01:56:24.688Z,6.42
2019-03-23T01:58:52.475Z,6.55
2019-03-23T02:01:19.966Z,6.30
2019-03-23T02:03:47.459Z,6.30
2019-03-23T02:06:15.161Z,6.53
2019-03-23T02:08:42.749Z,6.50
2019-03-23T02:11:10.229Z,6.17
2019-03-23T02:13:37.813Z,5.97
2019-03-23T02:16:05.332Z,6.33
2019-03-23T02:18:33.362Z,5.78
2019-03-23T02:21:01.846Z,5.85
2019-03-23T02:23:29.356Z,5.08
2019-03-23T02:25:56.798Z,6.40
2019-03-23T02:28:24.318Z,6.08
2019-03-23T02:30:51.829Z,5.03
2019-03-23T02:33:19.469Z,5.92
2019-03-23T02:35:47.057Z,6.40
2019-03-23T02:38:14.597Z,6.03
2019-03-23T02:40:42.201Z,5.58
2019-03-23T02:43:09.815Z,6.15
2019-03-23T02:45:37.455Z,6.00
2019-03-23T02:48:05.088Z,5.87
2019-03-23T02:50:32.708Z,5.67
2019-03-23T02:53:00.253Z,6.05
2019-03-23T02:55:27.921Z,5.17
2019-03-23T02:57:55.517Z,5.42
2019-03-23T03:00:23.123Z,6.33
2019-03-23T03:02:50.674Z,6.10
2019-03-23T03:05:18.343Z,6.03
2019-03-23T03:07:45.923Z,5.62
2019-03-23T03:10:26.100Z,5.67
2019-03-23T03:12:53.814Z,5.47
2019-03-23T03:15:21.342Z,6.37
2019-03-23T03:17:48.894Z,6.92
2019-03-23T03:20:16.485Z,5.67
2019-03-23T03:22:43.933Z,5.53
2019-03-23T03:25:11.558Z,5.90
2019-03-23T03:27:39.126Z,6.17
2019-03-23T03:30:07.473Z,6.10
2019-03-23T03:32:35.273Z,5.55
2019-03-23T03:35:03.174Z,5.72
2019-03-23T03:37:30.765Z,6.37
2019-03-23T03:39:58.332Z,5.90
2019-03-23T03:42:26.102Z,6.42
2019-03-23T03:44:53.599Z,5.42
2019-03-23T03:47:21.122Z,5.50
2019-03-23T03:49:48.706Z,5.90
2019-03-23T03:52:16.361Z,6.10
2019-03-23T03:54:44.059Z,6.08
2019-03-23T03:57:11.735Z,5.67
2019-03-23T03:59:39.453Z,5.22
2019-03-23T04:02:07.149Z,4.85
2019-03-23T04:04:35.808Z,5.33
2019-03-23T04:07:03.528Z,5.15
2019-03-23T04:09:31.159Z,5.25
2019-03-23T04:12:00.030Z,4.92
2019-03-23T04:14:27.497Z,5.40
2019-03-23T04:16:55.124Z,5.25
2019-03-23T04:19:22.746Z,4.92
2019-03-23T04:21:50.282Z,5.45
2019-03-23T04:24:17.828Z,5.08
2019-03-23T04:26:45.333Z,5.70
2019-03-23T04:29:12.886Z,5.28
2019-03-23T04:31:40.474Z,5.37
2019-03-23T04:34:08.041Z,5.30
2019-03-23T04:36:35.695Z,4.78
2019-03-23T04:39:05.084Z,5.72
2019-03-23T04:41:32.695Z,4.70
2019-03-23T04:44:00.635Z,5.60
2019-03-23T04:46:28.128Z,5.47
2019-03-23T04:48:55.789Z,5.35
2019-03-23T04:51:23.200Z,5.53
2019-03-23T04:53:50.893Z,5.03
2019-03-23T04:56:18.468Z,5.62
2019-03-23T04:58:46.183Z,4.75
2019-03-23T05:01:13.657Z,4.70
2019-03-23T05:03:41.199Z,5.05
2019-03-23T05:06:08.797Z,4.50
2019-03-23T05:08:37.752Z,5.10
2019-03-23T05:11:05.191Z,5.00
2019-03-23T05:13:32.760Z,5.08
2019-03-23T05:16:00.675Z,4.65
2019-03-23T05:18:28.308Z,4.67
2019-03-23T05:20:55.900Z,5.40
2019-03-23T05:23:23.517Z,5.40
2019-03-23T05:25:52.920Z,5.03
2019-03-23T05:28:20.657Z,4.78
2019-03-23T05:30:48.252Z,4.37
2019-03-23T05:33:15.793Z,5.65
2019-03-23T05:35:43.544Z,4.60
2019-03-23T05:38:11.257Z,4.75
2019-03-23T05:40:38.805Z,4.47
2019-03-23T05:43:06.544Z,4.55
2019-03-23T05:45:34.027Z,5.20
2019-03-23T05:48:01.588Z,4.80
2019-03-23T05:50:29.232Z,4.80
2019-03-23T05:52:56.878Z,4.95
2019-03-23T05:55:24.410Z,5.40
2019-03-23T05:57:52.000Z,5.72
2019-03-23T06:00:20.276Z,5.65
2019-03-23T06:02:47.842Z,4.95
2019-03-23T06:05:15.536Z,5.45
2019-03-23T06:07:43.057Z,5.85
2019-03-23T06:10:10.695Z,5.90
2019-03-23T06:12:38.563Z,5.47
2019-03-23T06:15:06.380Z,5.35
2019-03-23T06:17:33.917Z,8.03
2019-03-23T06:20:01.500Z,6.65
2019-03-23T06:22:29.793Z,6.72
2019-03-23T06:24:57.507Z,5.67
2019-03-23T06:27:25.132Z,5.90
2019-03-23T06:29:52.624Z,5.20
2019-03-23T06:32:21.133Z,5.40
2019-03-23T06:34:48.612Z,5.65
2019-03-23T06:37:17.221Z,6.42
2019-03-23T06:39:46.465Z,6.20
2019-03-23T06:42:14.228Z,6.17
2019-03-23T06:44:41.861Z,5.83
2019-03-23T06:47:09.372Z,7.03
2019-03-23T06:49:36.996Z,6.28
2019-03-23T06:52:04.682Z,7.72
2019-03-23T06:54:32.420Z,6.65
2019-03-23T06:57:00.655Z,7.87
2019-03-23T06:59:28.188Z,10.35
2019-03-23T07:01:55.903Z,8.90
2019-03-23T07:04:23.491Z,8.10
2019-03-23T07:06:51.074Z,8.00
2019-03-23T07:09:18.695Z,11.90
2019-03-23T07:11:46.360Z,11.45
2019-03-23T07:14:13.921Z,13.03
2019-03-23T07:16:42.823Z,10.72
2019-03-23T07:19:10.320Z,12.53
2019-03-23T07:21:37.998Z,13.70
2019-03-23T07:24:05.504Z,14.55
2019-03-23T07:26:33.135Z,14.67
2019-03-23T07:29:00.921Z,14.10
2019-03-23T07:31:29.752Z,13.50
2019-03-23T07:33:57.453Z,13.90
2019-03-23T07:36:25.029Z,14.28
2019-03-23T07:38:52.748Z,14.63
2019-03-23T07:41:20.347Z,15.00
2019-03-23T07:43:48.285Z,14.85
2019-03-23T07:46:17.116Z,18.73
2019-03-23T07:48:44.596Z,14.80
2019-03-23T07:51:13.274Z,12.67
2019-03-23T07:53:40.826Z,14.83
2019-03-23T07:56:08.689Z,12.20
2019-03-23T07:58:36.410Z,15.00
2019-03-23T08:01:04.008Z,14.17
2019-03-23T08:03:31.665Z,15.40
2019-03-23T08:05:59.345Z,13.23
2019-03-23T08:08:26.889Z,14.43
2019-03-23T08:10:54.301Z,16.10
2019-03-23T08:13:21.887Z,14.40
2019-03-23T08:15:50.663Z,15.07
2019-03-23T08:18:18.228Z,15.90
2019-03-23T08:20:47.286Z,15.80
2019-03-23T08:23:14.929Z,13.63
2019-03-23T08:25:42.440Z,20.93
2019-03-23T08:28:10.065Z,25.10
2019-03-23T08:30:37.540Z,26.57
2019-03-23T08:33:05.243Z,29.57
2019-03-23T08:35:33.018Z,27.00
2019-03-23T08:38:00.812Z,25.13
2019-03-23T08:40:28.379Z,20.50
2019-03-23T08:42:56.482Z,20.20
2019-03-23T08:45:24.546Z,26.40
2019-03-23T08:47:52.157Z,27.47
2019-03-23T08:50:19.686Z,24.87
2019-03-23T08:52:47.381Z,25.37
2019-03-23T08:55:15.102Z,27.23
2019-03-23T08:57:42.583Z,27.17
2019-03-23T09:00:10.370Z,25.93
2019-03-23T09:02:39.683Z,28.20
2019-03-23T09:05:07.731Z,28.93
2019-03-23T09:07:35.302Z,28.20
2019-03-23T09:10:03.378Z,27.70
2019-03-23T09:12:30.855Z,25.40
2019-03-23T09:14:58.579Z,25.67
2019-03-23T09:17:27.589Z,26.47
2019-03-23T09:19:56.572Z,27.10
2019-03-23T09:22:24.532Z,27.17
2019-03-23T09:24:52.091Z,27.07
2019-03-23T09:27:25.692Z,29.30
2019-03-23T09:29:53.457Z,27.40
2019-03-23T09:32:21.084Z,27.03
2019-03-23T09:34:48.748Z,26.60
2019-03-23T09:37:16.362Z,27.20
2019-03-23T09:39:43.894Z,28.63
2019-03-23T09:42:11.488Z,28.07
2019-03-23T09:44:39.106Z,27.40
2019-03-23T09:47:06.625Z,29.53
2019-03-23T09:49:34.359Z,29.20
2019-03-23T09:52:02.022Z,28.00
2019-03-23T09:54:29.636Z,28.47
2019-03-23T09:56:59.465Z,27.83
2019-03-23T09:59:26.678Z,29.20
2019-03-23T10:01:54.278Z,28.00
2019-03-23T10:04:21.860Z,28.03
2019-03-23T10:06:49.439Z,28.40
2019-03-23T10:09:17.181Z,28.43
2019-03-23T10:11:44.740Z,29.53
2019-03-23T10:14:12.307Z,26.80
2019-03-23T10:16:40.574Z,29.13
2019-03-23T10:19:08.020Z,29.03
2019-03-23T10:21:35.563Z,26.57
2019-03-23T10:24:03.054Z,29.80
2019-03-23T10:26:30.563Z,28.13
2019-03-23T10:28:58.185Z,29.70
2019-03-23T10:31:25.753Z,29.47
2019-03-23T10:33:53.277Z,27.80
2019-03-23T10:36:20.904Z,27.20
2019-03-23T10:38:48.411Z,28.93
2019-03-23T10:41:15.884Z,31.47
2019-03-23T10:43:43.731Z,30.47
2019-03-23T10:46:11.362Z,28.93
2019-03-23T10:48:39.056Z,28.67
2019-03-23T10:51:08.312Z,30.50
2019-03-23T10:53:36.092Z,27.73
2019-03-23T10:56:03.641Z,28.80
2019-03-23T10:58:31.245Z,30.10
2019-03-23T11:00:59.116Z,31.93
2019-03-23T11:03:26.737Z,30.17
2019-03-23T11:05:54.240Z,30.33
2019-03-23T11:08:23.704Z,29.57
2019-03-23T11:10:51.208Z,31.13
2019-03-23T11:13:20.193Z,30.03
2019-03-23T11:15:47.688Z,30.03
2019-03-23T11:18:16.403Z,31.03
2019-03-23T11:20:43.926Z,32.03
2019-03-23T11:23:11.621Z,30.53
2019-03-23T11:25:39.204Z,34.03
2019-03-23T11:28:06.662Z,32.27
2019-03-23T11:30:34.243Z,34.73
2019-03-23T11:33:01.677Z,34.83
2019-03-23T11:35:29.327Z,36.37
2019-03-23T11:37:56.988Z,35.30
2019-03-23T11:40:24.785Z,34.73
2019-03-23T11:42:52.343Z,36.90
2019-03-23T11:45:19.975Z,36.40
2019-03-23T11:47:47.578Z,35.87
2019-03-23T11:50:15.133Z,37.63
2019-03-23T11:52:42.734Z,36.00
2019-03-23T11:55:29.591Z,33.73
2019-03-23T11:57:57.067Z,35.10
2019-03-23T12:00:24.603Z,34.37
2019-03-23T12:02:53.252Z,35.30
2019-03-23T12:05:20.846Z,35.30
2019-03-23T12:07:48.508Z,37.70
2019-03-23T12:10:16.081Z,35.77
2019-03-23T12:12:43.646Z,36.70
2019-03-23T12:15:11.933Z,37.60
2019-03-23T12:17:39.565Z,36.50
2019-03-23T12:20:07.668Z,36.73
2019-03-23T12:22:35.305Z,36.03
2019-03-23T12:25:03.216Z,35.57
2019-03-23T12:27:30.851Z,33.10
2019-03-23T12:30:06.738Z,33.30
2019-03-23T12:32:27.813Z,33.90
2019-03-23T12:34:55.484Z,34.70
2019-03-23T12:37:23.044Z,37.50
2019-03-23T12:39:50.700Z,36.97
2019-03-23T12:42:18.271Z,38.03
2019-03-23T12:44:49.983Z,34.30
2019-03-23T12:47:17.694Z,36.23
2019-03-23T12:49:45.377Z,36.73
2019-03-23T12:52:13.063Z,35.93
2019-03-23T12:54:40.683Z,35.30
2019-03-23T12:57:08.315Z,34.43
2019-03-23T12:59:36.089Z,35.87
2019-03-23T13:02:03.717Z,36.10
2019-03-23T13:04:31.250Z,36.73
2019-03-23T13:06:58.768Z,36.83
2019-03-23T13:09:26.376Z,35.37
2019-03-23T13:11:54.042Z,37.57
2019-03-23T13:14:22.062Z,36.40
2019-03-23T13:16:49.757Z,37.60
2019-03-23T13:19:17.541Z,35.23
2019-03-23T13:21:45.542Z,36.20
2019-03-23T13:24:13.822Z,36.67
2019-03-23T13:26:41.285Z,37.73
2019-03-23T13:29:08.763Z,38.70
2019-03-23T13:31:36.321Z,36.20
2019-03-23T13:34:03.968Z,36.90
2019-03-23T13:36:31.548Z,35.57
2019-03-23T13:38:59.254Z,37.27
2019-03-23T13:41:26.848Z,36.33
2019-03-23T13:43:54.447Z,38.20
2019-03-23T13:46:22.055Z,37.50
2019-03-23T13:48:49.717Z,34.27
2019-03-23T13:51:17.299Z,36.70
2019-03-23T13:53:44.960Z,37.50
2019-03-23T13:56:12.522Z,34.27
2019-03-23T13:58:40.076Z,37.17
2019-03-23T14:01:07.604Z,35.50
2019-03-23T14:03:35.176Z,34.50
2019-03-23T14:06:03.115Z,36.47
2019-03-23T14:08:30.753Z,31.57
2019-03-23T14:10:58.289Z,36.30
2019-03-23T14:13:27.780Z,36.40
2019-03-23T14:15:55.307Z,37.57
2019-03-23T14:18:22.895Z,38.73
2019-03-23T14:20:50.362Z,34.87
2019-03-23T14:23:17.932Z,34.57
2019-03-23T14:25:45.866Z,36.80
2019-03-23T14:28:13.432Z,36.43
2019-03-23T14:30:42.825Z,35.97
2019-03-23T14:33:10.480Z,38.83
2019-03-23T14:35:38.210Z,42.40
2019-03-23T14:38:06.244Z,36.93
2019-03-23T14:40:34.007Z,37.80
2019-03-23T14:43:01.701Z,39.27
2019-03-23T14:45:29.133Z,39.53
2019-03-23T14:47:57.108Z,41.00
2019-03-23T14:50:24.872Z,35.60
2019-03-23T14:52:52.630Z,41.67
2019-03-23T14:55:20.210Z,35.67
2019-03-23T14:57:49.319Z,39.30
2019-03-23T15:00:27.923Z,34.43
2019-03-23T15:02:55.368Z,37.40
2019-03-23T15:05:22.872Z,37.97
2019-03-23T15:07:50.424Z,38.83
2019-03-23T15:10:18.008Z,36.20
2019-03-23T15:12:45.608Z,36.30
2019-03-23T15:15:13.168Z,36.87
2019-03-23T15:17:48.394Z,37.60
2019-03-23T15:20:10.128Z,36.20
2019-03-23T15:22:37.749Z,34.97
2019-03-23T15:25:06.791Z,36.57
2019-03-23T15:27:34.386Z,35.47
2019-03-23T15:30:02.059Z,35.60
2019-03-23T15:32:29.730Z,35.00
2019-03-23T15:34:57.278Z,35.10
2019-03-23T15:37:24.876Z,36.73
2019-03-23T15:39:52.488Z,35.87
2019-03-23T15:42:24.628Z,35.57
2019-03-23T15:44:49.372Z,35.03
2019-03-23T15:47:16.807Z,37.77
2019-03-23T15:49:44.435Z,36.67
2019-03-23T15:52:12.003Z,37.67
2019-03-23T15:54:39.623Z,35.23
2019-03-23T15:57:07.200Z,38.70
2019-03-23T15:59:34.780Z,37.40
2019-03-23T16:02:02.256Z,37.07
2019-03-23T16:04:29.844Z,38.37
2019-03-23T16:06:57.484Z,35.77
2019-03-23T16:09:25.017Z,35.90
2019-03-23T16:11:52.576Z,37.53
2019-03-23T16:14:20.008Z,40.80
2019-03-23T16:16:47.606Z,37.83
2019-03-23T16:19:15.134Z,39.60
2019-03-23T16:21:42.647Z,36.43
2019-03-23T16:24:10.387Z,39.77
2019-03-23T16:26:37.922Z,41.13
2019-03-23T16:29:05.422Z,37.60
2019-03-23T16:31:33.105Z,37.40
2019-03-23T16:34:00.595Z,39.80
2019-03-23T16:36:28.154Z,38.93
2019-03-23T16:38:55.875Z,40.13
2019-03-23T16:41:23.400Z,38.43
2019-03-23T16:43:51.317Z,38.40
2019-03-23T16:46:19.282Z,36.90
2019-03-23T16:48:47.226Z,41.23
2019-03-23T16:51:15.169Z,38.30
2019-03-23T16:53:44.005Z,38.57
2019-03-23T16:56:11.800Z,38.20
2019-03-23T16:58:39.534Z,37.50
2019-03-23T17:01:07.088Z,38.90
2019-03-23T17:03:34.691Z,38.03
2019-03-23T17:06:02.254Z,38.20
2019-03-23T17:08:30.050Z,37.77
2019-03-23T17:10:57.492Z,38.03
2019-03-23T17:13:25.140Z,37.10
2019-03-23T17:15:52.711Z,38.23
2019-03-23T17:18:20.419Z,35.20
2019-03-23T17:20:48.244Z,38.20
2019-03-23T17:23:16.141Z,34.50
2019-03-23T17:25:43.649Z,39.07
2019-03-23T17:28:11.286Z,35.20
2019-03-23T17:30:38.910Z,36.17
2019-03-23T17:33:08.805Z,36.20
2019-03-23T17:35:35.948Z,37.13
2019-03-23T17:38:03.678Z,35.47
2019-03-23T17:40:31.262Z,37.33
2019-03-23T17:43:05.922Z,37.03
2019-03-23T17:45:28.326Z,35.50
2019-03-23T17:47:55.897Z,34.83
2019-03-23T17:50:23.384Z,34.37
2019-03-23T17:52:50.905Z,36.93
2019-03-23T17:55:18.598Z,35.67
2019-03-23T17:57:46.282Z,35.17
2019-03-23T18:00:13.945Z,34.63
2019-03-23T18:02:41.518Z,34.93
2019-03-23T18:05:11.988Z,34.93
2019-03-23T18:07:39.262Z,33.43
2019-03-23T18:10:07.573Z,33.43
2019-03-23T18:12:35.319Z,35.07
2019-03-23T18:15:03.534Z,35.15
2019-03-23T18:17:31.463Z,35.83
2019-03-23T18:19:59.254Z,35.10
2019-03-23T18:22:26.840Z,35.67
2019-03-23T18:24:54.569Z,35.97
2019-03-23T18:27:22.221Z,35.57
2019-03-23T18:29:49.945Z,35.57
2019-03-23T18:32:17.498Z,34.63
2019-03-23T18:34:45.370Z,37.70
2019-03-23T18:37:12.939Z,36.73
2019-03-23T18:39:40.611Z,37.07
2019-03-23T18:42:08.261Z,36.60
2019-03-23T18:44:36.970Z,36.27
2019-03-23T18:47:04.806Z,37.30
2019-03-23T18:49:32.491Z,36.00
2019-03-23T18:51:59.981Z,36.67
2019-03-23T18:54:27.651Z,37.93
2019-03-23T18:56:55.475Z,36.98
2019-03-23T18:59:23.129Z,37.00
2019-03-23T19:01:52.904Z,34.93
2019-03-23T19:04:21.572Z,35.10
2019-03-23T19:06:49.646Z,34.27
2019-03-23T19:09:17.389Z,33.87
2019-03-23T19:11:45.135Z,28.85
2019-03-23T19:14:15.536Z,28.77
2019-03-23T19:16:43.293Z,29.63
2019-03-23T19:19:11.296Z,30.00
2019-03-23T19:21:39.259Z,34.30
2019-03-23T19:24:06.944Z,31.43
2019-03-23T19:26:34.620Z,36.10
2019-03-23T19:29:02.385Z,35.57
2019-03-23T19:31:30.099Z,33.10
2019-03-23T19:33:57.909Z,33.87
2019-03-23T19:36:25.829Z,32.27
2019-03-23T19:38:53.638Z,33.57
2019-03-23T19:41:21.449Z,35.23
2019-03-23T19:43:51.816Z,32.87
2019-03-23T19:46:19.025Z,34.00
2019-03-23T19:48:46.888Z,33.30
2019-03-23T19:51:14.720Z,32.60
2019-03-23T19:53:42.284Z,33.03
2019-03-23T19:56:10.396Z,30.23
2019-03-23T19:58:38.061Z,33.17
2019-03-23T20:01:05.515Z,31.73
2019-03-23T20:03:33.087Z,31.70
2019-03-23T20:06:00.764Z,32.93
2019-03-23T20:08:28.230Z,30.00
2019-03-23T20:10:55.861Z,30.10
2019-03-23T20:13:23.498Z,27.00
2019-03-23T20:15:51.119Z,29.70
2019-03-23T20:18:18.752Z,26.03
2019-03-23T20:20:46.360Z,25.37
2019-03-23T20:23:14.383Z,27.10
2019-03-23T20:25:43.214Z,27.30
2019-03-23T20:28:11.071Z,26.37
2019-03-23T20:30:38.742Z,27.70
2019-03-23T20:33:06.244Z,24.43
2019-03-23T20:35:33.951Z,27.60
2019-03-23T20:38:01.628Z,25.77
2019-03-23T20:40:29.289Z,25.90
2019-03-23T20:42:56.964Z,23.40
2019-03-23T20:45:29.299Z,22.52
2019-03-23T20:47:57.215Z,24.20
2019-03-23T20:50:28.063Z,23.50
2019-03-23T20:52:55.685Z,26.23
2019-03-23T20:55:26.021Z,21.77
2019-03-23T20:57:55.006Z,24.50
2019-03-23T21:00:24.268Z,22.43
2019-03-23T21:02:51.794Z,20.87
2019-03-23T21:05:19.419Z,23.33
2019-03-23T21:07:47.256Z,24.90
2019-03-23T21:10:14.808Z,25.45
2019-03-23T21:12:42.322Z,23.95
2019-03-23T21:15:10.131Z,27.02
2019-03-23T21:17:50.422Z,24.33
2019-03-23T21:20:07.429Z,25.77
2019-03-23T21:22:35.183Z,24.37
2019-03-23T21:25:02.965Z,22.23
2019-03-23T21:27:30.733Z,22.40
2019-03-23T21:29:58.505Z,22.10
2019-03-23T21:32:26.167Z,23.50
2019-03-23T21:34:54.439Z,24.43
2019-03-23T21:37:22.962Z,25.77
2019-03-23T21:39:50.714Z,24.73
2019-03-23T21:42:18.465Z,25.72
2019-03-23T21:44:46.282Z,25.85
2019-03-23T21:47:14.182Z,23.95
2019-03-23T21:49:43.734Z,24.80
2019-03-23T21:52:11.526Z,23.92
2019-03-23T21:54:39.580Z,25.35
2019-03-23T21:57:07.179Z,28.17
2019-03-23T21:59:36.428Z,25.55
2019-03-23T22:02:04.234Z,24.65
2019-03-23T22:04:31.988Z,25.70
2019-03-23T22:06:59.930Z,23.18
2019-03-23T22:09:27.787Z,22.50
2019-03-23T22:11:55.542Z,22.17
2019-03-23T22:14:23.495Z,23.50
2019-03-23T22:16:54.116Z,25.20
2019-03-23T22:19:23.087Z,23.22
2019-03-23T22:21:53.386Z,21.75
2019-03-23T22:24:21.621Z,22.02
2019-03-23T22:26:49.727Z,19.77
2019-03-23T22:29:19.055Z,21.00
2019-03-23T22:31:47.135Z,22.15
2019-03-23T22:34:14.781Z,24.82
2019-03-23T22:36:42.605Z,23.83
2019-03-23T22:39:10.961Z,24.20
2019-03-23T22:41:39.192Z,21.75
2019-03-23T22:44:06.946Z,24.02
2019-03-23T22:46:34.746Z,23.57
2019-03-23T22:49:02.586Z,22.58
2019-03-23T22:51:30.322Z,22.00
2019-03-23T22:53:59.513Z,23.00
2019-03-23T22:56:27.636Z,21.85
2019-03-23T22:58:57.988Z,21.45
2019-03-23T23:01:26.608Z,22.82
2019-03-23T23:03:54.772Z,21.10
2019-03-23T23:06:22.520Z,21.97
2019-03-23T23:08:50.080Z,21.50
2019-03-23T23:11:18.199Z,21.10
2019-03-23T23:13:48.116Z,20.62
2019-03-23T23:16:15.937Z,20.68
2019-03-23T23:18:43.753Z,20.77
2019-03-23T23:21:12.263Z,20.43
2019-03-23T23:23:40.255Z,19.42
2019-03-23T23:26:08.627Z,18.30
2019-03-23T23:28:45.691Z,19.20
2019-03-23T23:31:08.432Z,18.05
2019-03-23T23:33:36.174Z,18.25
2019-03-23T23:36:04.245Z,18.95
2019-03-23T23:38:31.800Z,18.70
2019-03-23T23:40:59.388Z,20.82
2019-03-23T23:43:27.017Z,20.37
2019-03-23T23:45:54.696Z,19.85
2019-03-23T23:48:24.085Z,20.72
2019-03-23T23:50:51.887Z,18.40
2019-03-23T23:53:19.611Z,21.65
2019-03-23T23:55:47.134Z,18.77
2019-03-23T23:58:14.743Z,19.30
